sensor_id;sensor_type;location;lat;lon;timestamp;P1;durP1;ratioP1;P2;durP2;ratioP2
4547;SDS011;2286;51.570;7.090;2022-07-01T00:00:27;16.73;;;15.10;;
4547;SDS011;2286;51.570;7.090;2022-07-01T00:02:54;15.13;;;13.73;;
4547;SDS011;2286;51.570;7.090;2022-07-01T00:05:21;14.13;;;12.83;;
4547;SDS011;2286;51.570;7.090;2022-07-01T00:07:48;14.40;;;13.20;;
4547;SDS011;2286;51.570;7.090;2022-07-01T00:10:15;13.63;;;12.43;;
4547;SDS011;2286;51.570;7.090;2022-07-01T00:12:43;13.93;;;12.73;;
4547;SDS011;2286;51.570;7.090;2022-07-01T00:15:11;13.80;;;12.50;;
4547;SDS011;2286;51.570;7.090;2022-07-01T00:17:39;15.10;;;13.90;;
4547;SDS011;2286;51.570;7.090;2022-07-01T00:20:06;13.87;;;12.57;;
4547;SDS011;2286;51.570;7.090;2022-07-01T00:22:33;15.63;;;14.30;;
4547;SDS011;2286;51.570;7.090;2022-07-01T00:25:00;13.53;;;12.37;;
4547;SDS011;2286;51.570;7.090;2022-07-01T00:27:28;12.93;;;11.90;;
4547;SDS011;2286;51.570;7.090;2022-07-01T00:29:56;13.20;;;12.00;;
4547;SDS011;2286;51.570;7.090;2022-07-01T00:32:23;12.23;;;11.27;;
4547;SDS011;2286;51.570;7.090;2022-07-01T00:34:50;13.67;;;12.50;;
4547;SDS011;2286;51.570;7.090;2022-07-01T00:37:17;13.20;;;12.20;;
4547;SDS011;2286;51.570;7.090;2022-07-01T00:39:44;13.50;;;12.20;;
4547;SDS011;2286;51.570;7.090;2022-07-01T00:42:11;13.37;;;12.20;;
4547;SDS011;2286;51.570;7.090;2022-07-01T00:44:38;13.50;;;12.40;;
4547;SDS011;2286;51.570;7.090;2022-07-01T00:47:09;14.63;;;13.33;;
4547;SDS011;2286;51.570;7.090;2022-07-01T00:49:37;16.00;;;14.60;;
4547;SDS011;2286;51.570;7.090;2022-07-01T00:52:05;16.20;;;14.80;;
4547;SDS011;2286;51.570;7.090;2022-07-01T00:54:34;17.70;;;15.90;;
4547;SDS011;2286;51.570;7.090;2022-07-01T00:57:05;17.00;;;15.50;;
4547;SDS011;2286;51.570;7.090;2022-07-01T00:59:32;18.40;;;16.53;;
4547;SDS011;2286;51.570;7.090;2022-07-01T01:02:00;18.80;;;17.03;;
4547;SDS011;2286;51.570;7.090;2022-07-01T01:04:29;18.50;;;16.80;;
4547;SDS011;2286;51.570;7.090;2022-07-01T01:06:56;20.13;;;18.13;;
4547;SDS011;2286;51.570;7.090;2022-07-01T01:09:23;19.60;;;17.80;;
4547;SDS011;2286;51.570;7.090;2022-07-01T01:11:50;20.27;;;18.33;;
4547;SDS011;2286;51.570;7.090;2022-07-01T01:14:17;21.27;;;19.13;;
4547;SDS011;2286;51.570;7.090;2022-07-01T01:16:44;19.77;;;17.73;;
4547;SDS011;2286;51.570;7.090;2022-07-01T01:19:11;21.27;;;19.13;;
4547;SDS011;2286;51.570;7.090;2022-07-01T01:21:40;21.93;;;19.73;;
4547;SDS011;2286;51.570;7.090;2022-07-01T01:24:07;24.60;;;22.10;;
4547;SDS011;2286;51.570;7.090;2022-07-01T01:26:34;23.00;;;20.70;;
4547;SDS011;2286;51.570;7.090;2022-07-01T01:29:03;23.37;;;21.10;;
4547;SDS011;2286;51.570;7.090;2022-07-01T01:31:32;24.07;;;21.67;;
4547;SDS011;2286;51.570;7.090;2022-07-01T01:33:59;24.90;;;22.30;;
4547;SDS011;2286;51.570;7.090;2022-07-01T01:36:26;25.33;;;22.77;;
4547;SDS011;2286;51.570;7.090;2022-07-01T01:38:55;24.93;;;22.63;;
4547;SDS011;2286;51.570;7.090;2022-07-01T01:41:24;25.83;;;23.33;;
4547;SDS011;2286;51.570;7.090;2022-07-01T01:43:50;27.40;;;24.60;;
4547;SDS011;2286;51.570;7.090;2022-07-01T01:46:17;29.70;;;26.80;;
4547;SDS011;2286;51.570;7.090;2022-07-01T01:48:44;32.00;;;28.50;;
4547;SDS011;2286;51.570;7.090;2022-07-01T01:51:11;29.80;;;26.73;;
4547;SDS011;2286;51.570;7.090;2022-07-01T01:53:38;30.97;;;27.87;;
4547;SDS011;2286;51.570;7.090;2022-07-01T01:56:06;32.33;;;29.13;;
4547;SDS011;2286;51.570;7.090;2022-07-01T01:58:33;30.87;;;27.87;;
4547;SDS011;2286;51.570;7.090;2022-07-01T02:01:00;31.70;;;28.47;;
4547;SDS011;2286;51.570;7.090;2022-07-01T02:03:28;30.90;;;27.93;;
4547;SDS011;2286;51.570;7.090;2022-07-01T02:05:55;33.17;;;29.77;;
4547;SDS011;2286;51.570;7.090;2022-07-01T02:08:22;31.43;;;28.30;;
4547;SDS011;2286;51.570;7.090;2022-07-01T02:10:49;29.63;;;26.73;;
4547;SDS011;2286;51.570;7.090;2022-07-01T02:13:17;27.00;;;24.07;;
4547;SDS011;2286;51.570;7.090;2022-07-01T02:15:44;24.23;;;21.93;;
4547;SDS011;2286;51.570;7.090;2022-07-01T02:18:11;25.60;;;23.30;;
4547;SDS011;2286;51.570;7.090;2022-07-01T02:20:38;24.23;;;21.93;;
4547;SDS011;2286;51.570;7.090;2022-07-01T02:23:04;22.70;;;20.50;;
4547;SDS011;2286;51.570;7.090;2022-07-01T02:25:31;20.97;;;18.77;;
4547;SDS011;2286;51.570;7.090;2022-07-01T02:27:58;22.00;;;19.80;;
4547;SDS011;2286;51.570;7.090;2022-07-01T02:30:27;21.90;;;19.90;;
4547;SDS011;2286;51.570;7.090;2022-07-01T02:32:55;20.07;;;18.17;;
4547;SDS011;2286;51.570;7.090;2022-07-01T02:35:22;20.23;;;18.20;;
4547;SDS011;2286;51.570;7.090;2022-07-01T02:37:49;20.03;;;18.17;;
4547;SDS011;2286;51.570;7.090;2022-07-01T02:40:16;19.13;;;17.23;;
4547;SDS011;2286;51.570;7.090;2022-07-01T02:42:43;17.80;;;15.80;;
4547;SDS011;2286;51.570;7.090;2022-07-01T02:45:11;17.33;;;14.97;;
4547;SDS011;2286;51.570;7.090;2022-07-01T02:47:40;15.60;;;14.10;;
4547;SDS011;2286;51.570;7.090;2022-07-01T02:50:08;14.93;;;13.53;;
4547;SDS011;2286;51.570;7.090;2022-07-01T02:52:37;16.03;;;14.53;;
4547;SDS011;2286;51.570;7.090;2022-07-01T02:55:06;14.13;;;12.63;;
4547;SDS011;2286;51.570;7.090;2022-07-01T02:57:34;15.00;;;13.70;;
4547;SDS011;2286;51.570;7.090;2022-07-01T03:00:02;14.00;;;12.63;;
4547;SDS011;2286;51.570;7.090;2022-07-01T03:02:30;14.57;;;13.03;;
4547;SDS011;2286;51.570;7.090;2022-07-01T03:04:59;15.00;;;13.50;;
4547;SDS011;2286;51.570;7.090;2022-07-01T03:07:26;15.50;;;14.00;;
4547;SDS011;2286;51.570;7.090;2022-07-01T03:09:53;15.40;;;13.73;;
4547;SDS011;2286;51.570;7.090;2022-07-01T03:12:21;16.57;;;14.77;;
4547;SDS011;2286;51.570;7.090;2022-07-01T03:14:50;15.40;;;13.80;;
4547;SDS011;2286;51.570;7.090;2022-07-01T03:17:17;17.10;;;14.77;;
4547;SDS011;2286;51.570;7.090;2022-07-01T03:19:45;16.03;;;14.37;;
4547;SDS011;2286;51.570;7.090;2022-07-01T03:22:13;18.73;;;14.30;;
4547;SDS011;2286;51.570;7.090;2022-07-01T03:24:40;15.30;;;13.70;;
4547;SDS011;2286;51.570;7.090;2022-07-01T03:27:07;17.67;;;14.10;;
4547;SDS011;2286;51.570;7.090;2022-07-01T03:29:34;15.73;;;14.23;;
4547;SDS011;2286;51.570;7.090;2022-07-01T03:32:01;13.80;;;12.40;;
4547;SDS011;2286;51.570;7.090;2022-07-01T03:34:28;15.30;;;13.70;;
4547;SDS011;2286;51.570;7.090;2022-07-01T03:36:55;17.77;;;13.73;;
4547;SDS011;2286;51.570;7.090;2022-07-01T03:39:23;16.10;;;14.37;;
4547;SDS011;2286;51.570;7.090;2022-07-01T03:41:50;16.43;;;13.70;;
4547;SDS011;2286;51.570;7.090;2022-07-01T03:44:17;14.90;;;13.50;;
4547;SDS011;2286;51.570;7.090;2022-07-01T03:46:44;15.43;;;13.77;;
4547;SDS011;2286;51.570;7.090;2022-07-01T03:49:11;15.20;;;13.53;;
4547;SDS011;2286;51.570;7.090;2022-07-01T03:51:38;15.73;;;14.13;;
4547;SDS011;2286;51.570;7.090;2022-07-01T03:54:05;17.67;;;15.87;;
4547;SDS011;2286;51.570;7.090;2022-07-01T03:56:50;14.07;;;12.40;;
4547;SDS011;2286;51.570;7.090;2022-07-01T03:59:17;15.70;;;13.57;;
4547;SDS011;2286;51.570;7.090;2022-07-01T04:01:44;14.43;;;12.87;;
4547;SDS011;2286;51.570;7.090;2022-07-01T04:04:11;13.53;;;12.13;;
4547;SDS011;2286;51.570;7.090;2022-07-01T04:06:37;13.67;;;12.37;;
4547;SDS011;2286;51.570;7.090;2022-07-01T04:09:04;14.53;;;13.23;;
4547;SDS011;2286;51.570;7.090;2022-07-01T04:11:32;14.83;;;12.90;;
4547;SDS011;2286;51.570;7.090;2022-07-01T04:14:00;15.60;;;14.13;;
4547;SDS011;2286;51.570;7.090;2022-07-01T04:16:27;15.70;;;14.00;;
4547;SDS011;2286;51.570;7.090;2022-07-01T04:18:54;14.53;;;12.90;;
4547;SDS011;2286;51.570;7.090;2022-07-01T04:21:21;16.63;;;14.87;;
4547;SDS011;2286;51.570;7.090;2022-07-01T04:24:05;17.17;;;15.37;;
4547;SDS011;2286;51.570;7.090;2022-07-01T04:26:33;16.57;;;14.90;;
4547;SDS011;2286;51.570;7.090;2022-07-01T04:29:02;16.63;;;15.13;;
4547;SDS011;2286;51.570;7.090;2022-07-01T04:31:29;16.67;;;15.00;;
4547;SDS011;2286;51.570;7.090;2022-07-01T04:33:56;16.47;;;14.80;;
4547;SDS011;2286;51.570;7.090;2022-07-01T04:36:23;16.53;;;14.83;;
4547;SDS011;2286;51.570;7.090;2022-07-01T04:38:50;16.07;;;14.70;;
4547;SDS011;2286;51.570;7.090;2022-07-01T04:41:17;15.57;;;14.20;;
4547;SDS011;2286;51.570;7.090;2022-07-01T04:44:03;15.33;;;13.93;;
4547;SDS011;2286;51.570;7.090;2022-07-01T04:46:30;15.27;;;13.80;;
4547;SDS011;2286;51.570;7.090;2022-07-01T04:48:57;13.43;;;12.23;;
4547;SDS011;2286;51.570;7.090;2022-07-01T04:51:24;15.60;;;14.03;;
4547;SDS011;2286;51.570;7.090;2022-07-01T04:53:52;15.10;;;13.50;;
4547;SDS011;2286;51.570;7.090;2022-07-01T04:56:19;14.90;;;13.50;;
4547;SDS011;2286;51.570;7.090;2022-07-01T04:58:46;15.20;;;13.60;;
4547;SDS011;2286;51.570;7.090;2022-07-01T05:01:14;15.63;;;14.07;;
4547;SDS011;2286;51.570;7.090;2022-07-01T05:03:41;17.30;;;14.30;;
4547;SDS011;2286;51.570;7.090;2022-07-01T05:06:08;16.07;;;14.50;;
4547;SDS011;2286;51.570;7.090;2022-07-01T05:08:35;16.70;;;15.00;;
4547;SDS011;2286;51.570;7.090;2022-07-01T05:11:02;16.47;;;15.07;;
4547;SDS011;2286;51.570;7.090;2022-07-01T05:13:29;16.50;;;14.93;;
4547;SDS011;2286;51.570;7.090;2022-07-01T05:15:56;17.00;;;15.07;;
4547;SDS011;2286;51.570;7.090;2022-07-01T05:18:24;16.17;;;14.50;;
4547;SDS011;2286;51.570;7.090;2022-07-01T05:21:09;15.40;;;13.80;;
4547;SDS011;2286;51.570;7.090;2022-07-01T05:23:53;16.50;;;14.20;;
4547;SDS011;2286;51.570;7.090;2022-07-01T05:26:20;15.33;;;13.93;;
4547;SDS011;2286;51.570;7.090;2022-07-01T05:28:47;16.10;;;14.50;;
4547;SDS011;2286;51.570;7.090;2022-07-01T05:31:14;15.57;;;13.97;;
4547;SDS011;2286;51.570;7.090;2022-07-01T05:33:43;15.40;;;14.00;;
4547;SDS011;2286;51.570;7.090;2022-07-01T05:36:10;14.20;;;12.83;;
4547;SDS011;2286;51.570;7.090;2022-07-01T05:38:37;14.77;;;13.30;;
4547;SDS011;2286;51.570;7.090;2022-07-01T05:41:04;13.33;;;12.23;;
4547;SDS011;2286;51.570;7.090;2022-07-01T05:43:31;14.47;;;12.97;;
4547;SDS011;2286;51.570;7.090;2022-07-01T05:45:58;12.17;;;10.97;;
4547;SDS011;2286;51.570;7.090;2022-07-01T05:48:25;13.17;;;11.40;;
4547;SDS011;2286;51.570;7.090;2022-07-01T05:50:54;12.60;;;11.43;;
4547;SDS011;2286;51.570;7.090;2022-07-01T05:53:21;12.57;;;11.57;;
4547;SDS011;2286;51.570;7.090;2022-07-01T05:55:48;14.73;;;11.83;;
4547;SDS011;2286;51.570;7.090;2022-07-01T05:58:15;11.90;;;10.80;;
4547;SDS011;2286;51.570;7.090;2022-07-01T06:00:42;11.70;;;10.30;;
4547;SDS011;2286;51.570;7.090;2022-07-01T06:03:09;12.03;;;10.83;;
4547;SDS011;2286;51.570;7.090;2022-07-01T06:05:36;11.30;;;9.80;;
4547;SDS011;2286;51.570;7.090;2022-07-01T06:08:05;12.27;;;10.97;;
4547;SDS011;2286;51.570;7.090;2022-07-01T06:10:32;12.43;;;11.23;;
4547;SDS011;2286;51.570;7.090;2022-07-01T06:12:59;12.87;;;11.10;;
4547;SDS011;2286;51.570;7.090;2022-07-01T06:15:26;11.50;;;10.50;;
4547;SDS011;2286;51.570;7.090;2022-07-01T06:17:54;13.03;;;11.93;;
4547;SDS011;2286;51.570;7.090;2022-07-01T06:20:21;12.87;;;11.57;;
4547;SDS011;2286;51.570;7.090;2022-07-01T06:22:48;12.47;;;10.47;;
4547;SDS011;2286;51.570;7.090;2022-07-01T06:25:16;12.80;;;11.30;;
4547;SDS011;2286;51.570;7.090;2022-07-01T06:27:44;13.70;;;12.40;;
4547;SDS011;2286;51.570;7.090;2022-07-01T06:30:11;13.23;;;12.03;;
4547;SDS011;2286;51.570;7.090;2022-07-01T06:32:39;13.43;;;12.33;;
4547;SDS011;2286;51.570;7.090;2022-07-01T06:35:06;13.23;;;11.93;;
4547;SDS011;2286;51.570;7.090;2022-07-01T06:37:34;12.83;;;11.73;;
4547;SDS011;2286;51.570;7.090;2022-07-01T06:40:02;13.47;;;12.23;;
4547;SDS011;2286;51.570;7.090;2022-07-01T06:42:30;14.47;;;13.07;;
4547;SDS011;2286;51.570;7.090;2022-07-01T06:44:58;13.80;;;12.03;;
4547;SDS011;2286;51.570;7.090;2022-07-01T06:47:24;13.00;;;11.90;;
4547;SDS011;2286;51.570;7.090;2022-07-01T06:49:51;12.30;;;11.20;;
4547;SDS011;2286;51.570;7.090;2022-07-01T06:52:18;11.57;;;10.50;;
4547;SDS011;2286;51.570;7.090;2022-07-01T06:54:45;9.10;;;8.30;;
4547;SDS011;2286;51.570;7.090;2022-07-01T06:57:12;14.13;;;11.70;;
4547;SDS011;2286;51.570;7.090;2022-07-01T06:59:40;12.10;;;11.20;;
4547;SDS011;2286;51.570;7.090;2022-07-01T07:02:07;13.20;;;12.20;;
4547;SDS011;2286;51.570;7.090;2022-07-01T07:04:34;13.17;;;12.00;;
4547;SDS011;2286;51.570;7.090;2022-07-01T07:07:01;14.97;;;13.60;;
4547;SDS011;2286;51.570;7.090;2022-07-01T07:09:28;12.97;;;11.97;;
4547;SDS011;2286;51.570;7.090;2022-07-01T07:11:55;14.60;;;13.30;;
4547;SDS011;2286;51.570;7.090;2022-07-01T07:14:22;13.83;;;12.53;;
4547;SDS011;2286;51.570;7.090;2022-07-01T07:16:50;12.73;;;11.80;;
4547;SDS011;2286;51.570;7.090;2022-07-01T07:19:19;13.70;;;12.53;;
4547;SDS011;2286;51.570;7.090;2022-07-01T07:21:46;12.00;;;10.90;;
4547;SDS011;2286;51.570;7.090;2022-07-01T07:24:13;12.50;;;11.20;;
4547;SDS011;2286;51.570;7.090;2022-07-01T07:26:40;13.13;;;12.00;;
4547;SDS011;2286;51.570;7.090;2022-07-01T07:29:06;12.20;;;11.00;;
4547;SDS011;2286;51.570;7.090;2022-07-01T07:31:33;11.20;;;10.20;;
4547;SDS011;2286;51.570;7.090;2022-07-01T07:34:01;11.23;;;10.23;;
4547;SDS011;2286;51.570;7.090;2022-07-01T07:36:28;10.40;;;9.60;;
4547;SDS011;2286;51.570;7.090;2022-07-01T07:38:56;11.57;;;10.67;;
4547;SDS011;2286;51.570;7.090;2022-07-01T07:41:23;12.73;;;11.60;;
4547;SDS011;2286;51.570;7.090;2022-07-01T07:43:50;11.33;;;10.53;;
4547;SDS011;2286;51.570;7.090;2022-07-01T07:46:17;11.40;;;10.50;;
4547;SDS011;2286;51.570;7.090;2022-07-01T07:48:44;11.67;;;10.67;;
4547;SDS011;2286;51.570;7.090;2022-07-01T07:51:13;11.87;;;10.67;;
4547;SDS011;2286;51.570;7.090;2022-07-01T07:53:43;12.30;;;11.20;;
4547;SDS011;2286;51.570;7.090;2022-07-01T07:56:10;12.10;;;11.20;;
4547;SDS011;2286;51.570;7.090;2022-07-01T07:58:37;12.50;;;11.37;;
4547;SDS011;2286;51.570;7.090;2022-07-01T08:01:07;12.77;;;11.77;;
4547;SDS011;2286;51.570;7.090;2022-07-01T08:03:34;12.50;;;11.40;;
4547;SDS011;2286;51.570;7.090;2022-07-01T08:06:02;13.03;;;12.13;;
4547;SDS011;2286;51.570;7.090;2022-07-01T08:08:30;13.20;;;12.00;;
4547;SDS011;2286;51.570;7.090;2022-07-01T08:10:57;12.70;;;10.57;;
4547;SDS011;2286;51.570;7.090;2022-07-01T08:13:24;11.73;;;10.67;;
4547;SDS011;2286;51.570;7.090;2022-07-01T08:15:51;10.83;;;9.93;;
4547;SDS011;2286;51.570;7.090;2022-07-01T08:18:18;14.03;;;12.80;;
4547;SDS011;2286;51.570;7.090;2022-07-01T08:20:45;13.90;;;12.47;;
4547;SDS011;2286;51.570;7.090;2022-07-01T08:23:13;12.90;;;11.70;;
4547;SDS011;2286;51.570;7.090;2022-07-01T08:25:41;12.87;;;11.67;;
4547;SDS011;2286;51.570;7.090;2022-07-01T08:28:08;11.50;;;10.43;;
4547;SDS011;2286;51.570;7.090;2022-07-01T08:30:35;9.93;;;9.13;;
4547;SDS011;2286;51.570;7.090;2022-07-01T08:33:02;8.50;;;7.80;;
4547;SDS011;2286;51.570;7.090;2022-07-01T08:35:29;8.27;;;7.30;;
4547;SDS011;2286;51.570;7.090;2022-07-01T08:37:56;8.43;;;7.10;;
4547;SDS011;2286;51.570;7.090;2022-07-01T08:40:26;7.10;;;6.60;;
4547;SDS011;2286;51.570;7.090;2022-07-01T08:42:59;8.93;;;6.10;;
4547;SDS011;2286;51.570;7.090;2022-07-01T08:45:27;6.60;;;6.10;;
4547;SDS011;2286;51.570;7.090;2022-07-01T08:47:56;5.87;;;5.40;;
4547;SDS011;2286;51.570;7.090;2022-07-01T08:50:26;5.83;;;5.30;;
4547;SDS011;2286;51.570;7.090;2022-07-01T08:52:54;6.33;;;4.40;;
4547;SDS011;2286;51.570;7.090;2022-07-01T08:55:21;5.87;;;5.10;;
4547;SDS011;2286;51.570;7.090;2022-07-01T08:57:48;5.17;;;4.67;;
4547;SDS011;2286;51.570;7.090;2022-07-01T09:00:17;4.40;;;3.97;;
4547;SDS011;2286;51.570;7.090;2022-07-01T09:02:51;4.40;;;3.53;;
4547;SDS011;2286;51.570;7.090;2022-07-01T09:05:20;4.03;;;3.57;;
4547;SDS011;2286;51.570;7.090;2022-07-01T09:07:47;4.73;;;4.00;;
4547;SDS011;2286;51.570;7.090;2022-07-01T09:10:15;5.37;;;3.50;;
4547;SDS011;2286;51.570;7.090;2022-07-01T09:12:44;6.13;;;3.83;;
4547;SDS011;2286;51.570;7.090;2022-07-01T09:15:22;5.57;;;3.27;;
4547;SDS011;2286;51.570;7.090;2022-07-01T09:17:55;3.40;;;3.10;;
4547;SDS011;2286;51.570;7.090;2022-07-01T09:20:24;6.13;;;3.77;;
4547;SDS011;2286;51.570;7.090;2022-07-01T09:23:02;3.33;;;2.87;;
4547;SDS011;2286;51.570;7.090;2022-07-01T09:25:31;4.70;;;3.00;;
4547;SDS011;2286;51.570;7.090;2022-07-01T09:28:03;5.60;;;2.90;;
4547;SDS011;2286;51.570;7.090;2022-07-01T09:30:33;5.13;;;2.63;;
4547;SDS011;2286;51.570;7.090;2022-07-01T09:33:12;3.43;;;3.13;;
4547;SDS011;2286;51.570;7.090;2022-07-01T09:35:41;4.67;;;2.40;;
4547;SDS011;2286;51.570;7.090;2022-07-01T09:38:10;3.50;;;2.03;;
4547;SDS011;2286;51.570;7.090;2022-07-01T09:40:45;3.63;;;1.93;;
4547;SDS011;2286;51.570;7.090;2022-07-01T09:43:14;3.63;;;1.70;;
4547;SDS011;2286;51.570;7.090;2022-07-01T09:45:53;2.57;;;1.60;;
4547;SDS011;2286;51.570;7.090;2022-07-01T09:48:21;3.10;;;1.97;;
4547;SDS011;2286;51.570;7.090;2022-07-01T09:50:50;3.20;;;1.93;;
4547;SDS011;2286;51.570;7.090;2022-07-01T09:53:17;4.57;;;2.10;;
4547;SDS011;2286;51.570;7.090;2022-07-01T09:55:44;2.77;;;1.30;;
4547;SDS011;2286;51.570;7.090;2022-07-01T09:58:11;1.53;;;1.10;;
4547;SDS011;2286;51.570;7.090;2022-07-01T10:00:39;3.43;;;1.30;;
4547;SDS011;2286;51.570;7.090;2022-07-01T10:03:07;3.33;;;1.73;;
4547;SDS011;2286;51.570;7.090;2022-07-01T10:05:37;2.10;;;1.50;;
4547;SDS011;2286;51.570;7.090;2022-07-01T10:08:14;2.17;;;1.40;;
4547;SDS011;2286;51.570;7.090;2022-07-01T10:11:03;2.73;;;1.77;;
4547;SDS011;2286;51.570;7.090;2022-07-01T10:13:47;3.80;;;1.60;;
4547;SDS011;2286;51.570;7.090;2022-07-01T10:16:14;3.70;;;1.90;;
4547;SDS011;2286;51.570;7.090;2022-07-01T10:18:45;2.90;;;1.70;;
4547;SDS011;2286;51.570;7.090;2022-07-01T10:21:24;4.43;;;1.57;;
4547;SDS011;2286;51.570;7.090;2022-07-01T10:23:55;2.70;;;1.40;;
4547;SDS011;2286;51.570;7.090;2022-07-01T10:26:37;2.10;;;1.57;;
4547;SDS011;2286;51.570;7.090;2022-07-01T10:29:04;3.40;;;1.67;;
4547;SDS011;2286;51.570;7.090;2022-07-01T10:31:34;4.53;;;1.10;;
4547;SDS011;2286;51.570;7.090;2022-07-01T10:34:04;2.60;;;1.70;;
4547;SDS011;2286;51.570;7.090;2022-07-01T10:36:32;3.50;;;1.90;;
4547;SDS011;2286;51.570;7.090;2022-07-01T10:39:11;2.30;;;1.73;;
4547;SDS011;2286;51.570;7.090;2022-07-01T10:41:41;2.80;;;1.40;;
4547;SDS011;2286;51.570;7.090;2022-07-01T10:44:21;1.73;;;1.50;;
4547;SDS011;2286;51.570;7.090;2022-07-01T10:46:49;2.70;;;1.40;;
4547;SDS011;2286;51.570;7.090;2022-07-01T10:52:24;1.77;;;1.50;;
4547;SDS011;2286;51.570;7.090;2022-07-01T10:54:52;2.30;;;1.40;;
4547;SDS011;2286;51.570;7.090;2022-07-01T11:05:54;1.50;;;1.20;;
4547;SDS011;2286;51.570;7.090;2022-07-01T11:08:21;1.93;;;1.27;;
4547;SDS011;2286;51.570;7.090;2022-07-01T11:10:49;2.67;;;1.67;;
4547;SDS011;2286;51.570;7.090;2022-07-01T11:13:17;2.07;;;1.07;;
4547;SDS011;2286;51.570;7.090;2022-07-01T11:15:45;3.30;;;1.10;;
4547;SDS011;2286;51.570;7.090;2022-07-01T11:18:13;1.80;;;1.00;;
4547;SDS011;2286;51.570;7.090;2022-07-01T11:20:41;2.53;;;1.30;;
4547;SDS011;2286;51.570;7.090;2022-07-01T11:23:10;1.63;;;1.10;;
4547;SDS011;2286;51.570;7.090;2022-07-01T11:25:37;2.13;;;1.20;;
4547;SDS011;2286;51.570;7.090;2022-07-01T11:28:04;2.43;;;1.10;;
4547;SDS011;2286;51.570;7.090;2022-07-01T11:30:33;2.17;;;1.17;;
4547;SDS011;2286;51.570;7.090;2022-07-01T11:33:00;2.60;;;1.47;;
4547;SDS011;2286;51.570;7.090;2022-07-01T11:35:27;7.53;;;1.70;;
4547;SDS011;2286;51.570;7.090;2022-07-01T11:38:15;1.00;;;0.90;;
4547;SDS011;2286;51.570;7.090;2022-07-01T11:41:01;1.97;;;1.50;;
4547;SDS011;2286;51.570;7.090;2022-07-01T11:43:31;2.80;;;1.63;;
4547;SDS011;2286;51.570;7.090;2022-07-01T11:46:00;2.23;;;1.37;;
4547;SDS011;2286;51.570;7.090;2022-07-01T11:48:30;2.33;;;0.97;;
4547;SDS011;2286;51.570;7.090;2022-07-01T11:50:59;2.47;;;1.20;;
4547;SDS011;2286;51.570;7.090;2022-07-01T11:53:29;3.70;;;1.27;;
4547;SDS011;2286;51.570;7.090;2022-07-01T11:55:56;4.37;;;1.40;;
4547;SDS011;2286;51.570;7.090;2022-07-01T11:58:24;2.00;;;1.20;;
4547;SDS011;2286;51.570;7.090;2022-07-01T12:01:05;3.93;;;1.50;;
4547;SDS011;2286;51.570;7.090;2022-07-01T12:03:33;4.07;;;1.33;;
4547;SDS011;2286;51.570;7.090;2022-07-01T12:06:01;2.10;;;1.30;;
4547;SDS011;2286;51.570;7.090;2022-07-01T12:08:30;1.73;;;1.00;;
4547;SDS011;2286;51.570;7.090;2022-07-01T12:10:57;1.93;;;1.20;;
4547;SDS011;2286;51.570;7.090;2022-07-01T12:13:24;1.73;;;1.30;;
4547;SDS011;2286;51.570;7.090;2022-07-01T12:15:52;2.00;;;1.00;;
4547;SDS011;2286;51.570;7.090;2022-07-01T12:18:19;3.43;;;1.70;;
4547;SDS011;2286;51.570;7.090;2022-07-01T12:20:50;2.57;;;1.60;;
4547;SDS011;2286;51.570;7.090;2022-07-01T12:23:18;4.67;;;1.43;;
4547;SDS011;2286;51.570;7.090;2022-07-01T12:25:47;1.70;;;1.10;;
4547;SDS011;2286;51.570;7.090;2022-07-01T12:31:06;4.63;;;1.67;;
4547;SDS011;2286;51.570;7.090;2022-07-01T12:33:35;2.43;;;1.10;;
4547;SDS011;2286;51.570;7.090;2022-07-01T12:36:03;3.70;;;1.37;;
4547;SDS011;2286;51.570;7.090;2022-07-01T12:38:31;2.97;;;1.40;;
4547;SDS011;2286;51.570;7.090;2022-07-01T12:41:00;3.53;;;1.30;;
4547;SDS011;2286;51.570;7.090;2022-07-01T12:43:27;6.13;;;1.60;;
4547;SDS011;2286;51.570;7.090;2022-07-01T12:45:57;3.50;;;1.50;;
4547;SDS011;2286;51.570;7.090;2022-07-01T12:48:24;2.33;;;1.10;;
4547;SDS011;2286;51.570;7.090;2022-07-01T12:50:52;2.37;;;1.53;;
4547;SDS011;2286;51.570;7.090;2022-07-01T12:53:21;1.73;;;1.10;;
4547;SDS011;2286;51.570;7.090;2022-07-01T12:55:49;2.87;;;1.10;;
4547;SDS011;2286;51.570;7.090;2022-07-01T12:58:19;3.33;;;1.30;;
4547;SDS011;2286;51.570;7.090;2022-07-01T13:00:48;3.63;;;1.30;;
4547;SDS011;2286;51.570;7.090;2022-07-01T13:03:18;2.90;;;1.20;;
4547;SDS011;2286;51.570;7.090;2022-07-01T13:05:47;2.93;;;1.47;;
4547;SDS011;2286;51.570;7.090;2022-07-01T13:08:15;1.83;;;1.00;;
4547;SDS011;2286;51.570;7.090;2022-07-01T13:10:43;3.13;;;1.10;;
4547;SDS011;2286;51.570;7.090;2022-07-01T13:13:11;4.53;;;1.33;;
4547;SDS011;2286;51.570;7.090;2022-07-01T13:15:40;3.00;;;1.40;;
4547;SDS011;2286;51.570;7.090;2022-07-01T13:18:07;2.13;;;1.60;;
4547;SDS011;2286;51.570;7.090;2022-07-01T13:20:34;3.30;;;1.70;;
4547;SDS011;2286;51.570;7.090;2022-07-01T13:23:03;2.57;;;1.40;;
4547;SDS011;2286;51.570;7.090;2022-07-01T13:25:30;2.40;;;1.27;;
4547;SDS011;2286;51.570;7.090;2022-07-01T13:27:57;4.10;;;1.30;;
4547;SDS011;2286;51.570;7.090;2022-07-01T13:30:24;1.40;;;1.00;;
4547;SDS011;2286;51.570;7.090;2022-07-01T13:32:53;2.80;;;1.60;;
4547;SDS011;2286;51.570;7.090;2022-07-01T13:35:20;2.30;;;1.50;;
4547;SDS011;2286;51.570;7.090;2022-07-01T13:37:48;3.00;;;1.57;;
4547;SDS011;2286;51.570;7.090;2022-07-01T13:40:15;2.60;;;1.40;;
4547;SDS011;2286;51.570;7.090;2022-07-01T13:42:43;1.83;;;1.20;;
4547;SDS011;2286;51.570;7.090;2022-07-01T13:45:10;1.30;;;0.90;;
4547;SDS011;2286;51.570;7.090;2022-07-01T13:47:38;3.27;;;1.80;;
4547;SDS011;2286;51.570;7.090;2022-07-01T13:50:08;2.50;;;1.10;;
4547;SDS011;2286;51.570;7.090;2022-07-01T13:52:35;2.37;;;1.00;;
4547;SDS011;2286;51.570;7.090;2022-07-01T13:55:03;1.60;;;1.20;;
4547;SDS011;2286;51.570;7.090;2022-07-01T13:57:30;2.03;;;0.93;;
4547;SDS011;2286;51.570;7.090;2022-07-01T13:59:57;2.03;;;1.07;;
4547;SDS011;2286;51.570;7.090;2022-07-01T14:02:24;1.47;;;0.77;;
4547;SDS011;2286;51.570;7.090;2022-07-01T14:04:51;2.90;;;1.07;;
4547;SDS011;2286;51.570;7.090;2022-07-01T14:07:19;1.97;;;0.83;;
4547;SDS011;2286;51.570;7.090;2022-07-01T14:09:46;1.80;;;1.10;;
4547;SDS011;2286;51.570;7.090;2022-07-01T14:12:13;4.57;;;1.50;;
4547;SDS011;2286;51.570;7.090;2022-07-01T14:14:40;3.73;;;0.93;;
4547;SDS011;2286;51.570;7.090;2022-07-01T14:17:08;1.80;;;1.10;;
4547;SDS011;2286;51.570;7.090;2022-07-01T14:19:35;3.13;;;1.07;;
4547;SDS011;2286;51.570;7.090;2022-07-01T14:22:02;1.93;;;0.90;;
4547;SDS011;2286;51.570;7.090;2022-07-01T14:24:30;1.80;;;1.10;;
4547;SDS011;2286;51.570;7.090;2022-07-01T14:26:57;3.37;;;0.83;;
4547;SDS011;2286;51.570;7.090;2022-07-01T14:29:24;1.40;;;0.80;;
4547;SDS011;2286;51.570;7.090;2022-07-01T14:31:51;2.43;;;1.43;;
4547;SDS011;2286;51.570;7.090;2022-07-01T14:34:18;1.97;;;0.80;;
4547;SDS011;2286;51.570;7.090;2022-07-01T14:36:44;1.30;;;1.10;;
4547;SDS011;2286;51.570;7.090;2022-07-01T14:39:11;2.00;;;1.30;;
4547;SDS011;2286;51.570;7.090;2022-07-01T14:41:39;1.40;;;1.10;;
4547;SDS011;2286;51.570;7.090;2022-07-01T14:44:07;1.90;;;1.17;;
4547;SDS011;2286;51.570;7.090;2022-07-01T14:46:33;1.93;;;1.20;;
4547;SDS011;2286;51.570;7.090;2022-07-01T14:49:00;2.27;;;1.27;;
4547;SDS011;2286;51.570;7.090;2022-07-01T14:51:27;5.73;;;1.23;;
4547;SDS011;2286;51.570;7.090;2022-07-01T14:53:54;1.53;;;1.17;;
4547;SDS011;2286;51.570;7.090;2022-07-01T14:56:21;4.27;;;1.10;;
4547;SDS011;2286;51.570;7.090;2022-07-01T14:58:49;2.50;;;1.13;;
4547;SDS011;2286;51.570;7.090;2022-07-01T15:01:16;3.00;;;1.30;;
4547;SDS011;2286;51.570;7.090;2022-07-01T15:03:43;3.27;;;1.20;;
4547;SDS011;2286;51.570;7.090;2022-07-01T15:06:10;1.27;;;1.00;;
4547;SDS011;2286;51.570;7.090;2022-07-01T15:08:37;1.50;;;1.10;;
4547;SDS011;2286;51.570;7.090;2022-07-01T15:11:05;3.10;;;1.30;;
4547;SDS011;2286;51.570;7.090;2022-07-01T15:13:32;3.83;;;1.10;;
4547;SDS011;2286;51.570;7.090;2022-07-01T15:16:02;1.43;;;1.00;;
4547;SDS011;2286;51.570;7.090;2022-07-01T15:18:30;3.30;;;1.43;;
4547;SDS011;2286;51.570;7.090;2022-07-01T15:20:58;1.23;;;0.90;;